createdAt,value
2023-03-25T00:00:15.758Z,4.85
2023-03-25T00:02:47.605Z,3.80
2023-03-25T00:05:16.412Z,4.90
2023-03-25T00:07:44.000Z,6.07
2023-03-25T00:10:12.455Z,4.47
2023-03-25T00:12:39.528Z,6.68
2023-03-25T00:15:07.689Z,3.92
2023-03-25T00:17:36.821Z,5.00
2023-03-25T00:20:10.719Z,5.07
2023-03-25T00:22:41.565Z,6.57
2023-03-25T00:25:19.275Z,7.00
2023-03-25T00:27:48.612Z,5.05
2023-03-25T00:30:17.122Z,8.93
2023-03-25T00:32:49.935Z,4.13
2023-03-25T00:35:19.534Z,7.47
2023-03-25T00:37:48.283Z,6.28
2023-03-25T00:40:14.947Z,4.93
2023-03-25T00:42:44.913Z,6.05
2023-03-25T00:45:14.401Z,6.22
2023-03-25T00:47:41.628Z,5.72
2023-03-25T00:50:08.657Z,4.93
2023-03-25T00:52:35.652Z,7.30
2023-03-25T00:55:02.812Z,6.95
2023-03-25T00:57:30.589Z,6.80
2023-03-25T00:59:57.277Z,6.65
2023-03-25T01:02:24.803Z,6.43
2023-03-25T01:04:51.685Z,7.20
2023-03-25T01:07:20.347Z,6.07
2023-03-25T01:09:48.091Z,5.63
2023-03-25T01:12:16.028Z,8.02
2023-03-25T01:14:43.344Z,6.38
2023-03-25T01:17:10.808Z,6.05
2023-03-25T01:19:37.432Z,6.40
2023-03-25T01:22:04.339Z,6.85
2023-03-25T01:24:31.510Z,7.72
2023-03-25T01:26:58.270Z,6.43
2023-03-25T01:29:27.798Z,6.43
2023-03-25T01:31:55.718Z,6.80
2023-03-25T01:34:23.177Z,6.43
2023-03-25T01:36:50.857Z,5.78
2023-03-25T01:39:19.195Z,6.90
2023-03-25T01:41:51.225Z,5.88
2023-03-25T01:44:24.220Z,5.75
2023-03-25T01:46:54.440Z,8.02
2023-03-25T01:49:50.396Z,7.60
2023-03-25T01:52:28.717Z,7.32
2023-03-25T01:54:56.493Z,8.30
2023-03-25T01:57:25.840Z,7.38
2023-03-25T01:59:54.759Z,7.28
2023-03-25T02:02:25.210Z,6.65
2023-03-25T02:04:59.840Z,5.13
2023-03-25T02:07:32.516Z,6.45
2023-03-25T02:10:08.092Z,8.40
2023-03-25T02:12:35.028Z,6.65
2023-03-25T02:15:04.559Z,5.45
2023-03-25T02:17:37.219Z,7.75
2023-03-25T02:20:30.854Z,5.70
2023-03-25T02:23:22.261Z,7.00
2023-03-25T02:26:14.244Z,7.15
2023-03-25T02:29:10.848Z,7.78
2023-03-25T02:31:43.518Z,5.07
2023-03-25T02:34:25.600Z,5.50
2023-03-25T02:37:11.656Z,5.75
2023-03-25T02:40:07.138Z,8.77
2023-03-25T02:43:20.288Z,7.15
2023-03-25T02:45:52.910Z,6.95
2023-03-25T02:48:28.075Z,6.45
2023-03-25T02:50:58.186Z,7.03
2023-03-25T02:53:35.258Z,6.65
2023-03-25T02:56:11.040Z,6.13
2023-03-25T02:58:40.157Z,7.32
2023-03-25T03:01:10.103Z,5.43
2023-03-25T03:03:37.164Z,5.90
2023-03-25T03:06:05.504Z,7.10
2023-03-25T03:09:25.783Z,6.20
2023-03-25T03:12:16.619Z,6.88
2023-03-25T03:14:52.204Z,7.07
2023-03-25T03:17:46.200Z,6.57
2023-03-25T03:21:00.759Z,5.95
2023-03-25T03:23:38.586Z,6.03
2023-03-25T03:26:15.949Z,6.28
2023-03-25T03:29:12.439Z,6.72
2023-03-25T03:32:06.654Z,5.97
2023-03-25T03:34:46.371Z,5.78
2023-03-25T03:37:21.280Z,5.85
2023-03-25T03:39:50.353Z,7.20
2023-03-25T03:42:31.060Z,6.47
2023-03-25T03:45:07.006Z,7.40
2023-03-25T03:47:41.337Z,5.97
2023-03-25T03:50:14.729Z,6.78
2023-03-25T03:52:51.238Z,7.85
2023-03-25T03:55:29.055Z,5.53
2023-03-25T03:58:05.678Z,5.65
2023-03-25T04:00:38.360Z,6.10
2023-03-25T04:03:15.045Z,6.50
2023-03-25T04:05:52.853Z,5.72
2023-03-25T04:08:29.637Z,4.75
2023-03-25T04:11:01.590Z,6.07
2023-03-25T04:13:33.766Z,7.35
2023-03-25T04:16:00.817Z,7.22
2023-03-25T04:18:28.681Z,5.20
2023-03-25T04:20:55.995Z,4.22
2023-03-25T04:23:22.765Z,5.68
2023-03-25T04:25:55.177Z,6.95
2023-03-25T04:28:23.984Z,4.28
2023-03-25T04:30:55.643Z,4.40
2023-03-25T04:33:25.451Z,5.63
2023-03-25T04:35:52.935Z,4.47
2023-03-25T04:38:20.614Z,5.75
2023-03-25T04:40:47.433Z,6.70
2023-03-25T04:43:17.666Z,4.00
2023-03-25T04:45:49.845Z,7.78
2023-03-25T04:48:24.086Z,5.45
2023-03-25T04:50:55.887Z,7.20
2023-03-25T04:53:22.728Z,6.03
2023-03-25T04:55:51.583Z,5.10
2023-03-25T04:58:18.399Z,7.28
2023-03-25T05:00:50.472Z,5.43
2023-03-25T05:03:24.012Z,3.92
2023-03-25T05:05:51.960Z,4.78
2023-03-25T05:08:21.526Z,5.78
2023-03-25T05:10:49.375Z,6.68
2023-03-25T05:13:16.498Z,8.63
2023-03-25T05:15:43.334Z,4.97
2023-03-25T05:18:13.718Z,5.15
2023-03-25T05:20:42.732Z,5.85
2023-03-25T05:23:16.126Z,7.53
2023-03-25T05:25:43.994Z,5.57
2023-03-25T05:28:13.904Z,5.70
2023-03-25T05:30:41.879Z,8.30
2023-03-25T05:33:12.462Z,6.93
2023-03-25T05:35:39.611Z,7.15
2023-03-25T05:38:08.252Z,6.22
2023-03-25T05:40:36.162Z,6.28
2023-03-25T05:43:06.747Z,5.82
2023-03-25T05:45:36.157Z,7.88
2023-03-25T05:48:03.687Z,5.85
2023-03-25T05:50:30.895Z,8.77
2023-03-25T05:52:59.851Z,7.68
2023-03-25T05:55:27.539Z,5.90
2023-03-25T05:57:54.241Z,7.78
2023-03-25T06:00:24.648Z,6.07
2023-03-25T06:02:52.306Z,6.50
2023-03-25T06:05:23.453Z,9.10
2023-03-25T06:07:51.571Z,7.80
2023-03-25T06:10:18.545Z,5.78
2023-03-25T06:12:46.914Z,6.05
2023-03-25T06:15:18.110Z,7.00
2023-03-25T06:17:47.270Z,7.05
2023-03-25T06:20:16.345Z,6.18
2023-03-25T06:22:44.900Z,7.28
2023-03-25T06:25:17.913Z,6.22
2023-03-25T06:27:45.988Z,7.55
2023-03-25T06:30:15.888Z,7.63
2023-03-25T06:32:42.878Z,7.28
2023-03-25T06:35:11.616Z,9.13
2023-03-25T06:37:38.853Z,8.73
2023-03-25T06:40:11.804Z,7.82
2023-03-25T06:42:38.949Z,9.60
2023-03-25T06:45:35.299Z,8.32
2023-03-25T06:48:10.405Z,7.63
2023-03-25T06:50:37.113Z,6.07
2023-03-25T06:53:03.786Z,7.78
2023-03-25T06:55:30.586Z,8.38
2023-03-25T06:57:57.217Z,6.10
2023-03-25T07:00:24.602Z,10.05
2023-03-25T07:02:51.265Z,7.93
2023-03-25T07:05:18.211Z,9.32
2023-03-25T07:07:44.862Z,6.88
2023-03-25T07:10:13.483Z,7.55
2023-03-25T07:12:40.609Z,7.20
2023-03-25T07:15:08.288Z,7.20
2023-03-25T07:17:37.197Z,7.90
2023-03-25T07:20:07.608Z,6.75
2023-03-25T07:22:35.023Z,6.05
2023-03-25T07:25:01.731Z,7.32
2023-03-25T07:27:28.618Z,6.03
2023-03-25T07:30:03.056Z,5.90
2023-03-25T07:32:29.747Z,6.82
2023-03-25T07:34:56.794Z,6.18
2023-03-25T07:37:23.402Z,7.35
2023-03-25T07:39:50.102Z,8.90
2023-03-25T07:42:17.218Z,6.22
2023-03-25T07:45:01.608Z,8.02
2023-03-25T07:47:29.872Z,7.47
2023-03-25T07:49:56.600Z,6.47
2023-03-25T07:52:23.211Z,8.18
2023-03-25T07:54:49.923Z,7.82
2023-03-25T07:57:16.500Z,6.85
2023-03-25T07:59:43.201Z,8.82
2023-03-25T08:02:13.973Z,7.80
2023-03-25T08:04:40.944Z,8.98
2023-03-25T08:07:08.060Z,8.15
2023-03-25T08:09:34.869Z,7.07
2023-03-25T08:12:01.519Z,6.65
2023-03-25T08:14:28.314Z,6.13
2023-03-25T08:16:54.975Z,8.02
2023-03-25T08:19:22.815Z,6.38
2023-03-25T08:21:49.484Z,7.20
2023-03-25T08:24:16.112Z,7.05
2023-03-25T08:26:43.667Z,8.00
2023-03-25T08:29:11.584Z,9.43
2023-03-25T08:31:39.088Z,6.35
2023-03-25T08:34:06.140Z,8.57
2023-03-25T08:36:32.819Z,7.28
2023-03-25T08:39:30.443Z,5.10
2023-03-25T08:41:59.115Z,4.80
2023-03-25T08:44:25.804Z,5.22
2023-03-25T08:46:52.380Z,7.75
2023-03-25T08:49:19.216Z,9.43
2023-03-25T08:51:45.940Z,4.72
2023-03-25T08:54:12.568Z,6.63
2023-03-25T08:56:39.269Z,6.95
2023-03-25T08:59:06.201Z,5.47
2023-03-25T09:01:33.239Z,5.03
2023-03-25T09:03:59.993Z,6.20
2023-03-25T09:06:26.649Z,7.95
2023-03-25T09:08:55.941Z,6.20
2023-03-25T09:11:34.209Z,6.53
2023-03-25T09:14:04.959Z,9.68
2023-03-25T09:16:32.601Z,5.45
2023-03-25T09:18:59.294Z,5.35
2023-03-25T09:21:26.354Z,6.10
2023-03-25T09:23:52.980Z,9.30
2023-03-25T09:26:19.766Z,5.88
2023-03-25T09:28:47.870Z,4.43
2023-03-25T09:31:15.168Z,4.57
2023-03-25T09:33:41.941Z,3.45
2023-03-25T09:36:08.984Z,3.55
2023-03-25T09:38:35.684Z,2.55
2023-03-25T09:41:15.606Z,3.08
2023-03-25T09:44:18.936Z,4.63
2023-03-25T09:46:45.894Z,2.33
2023-03-25T09:49:22.548Z,3.10
2023-03-25T09:51:51.601Z,3.27
2023-03-25T09:54:30.209Z,1.83
2023-03-25T09:57:07.822Z,3.00
2023-03-25T09:59:40.580Z,5.30
2023-03-25T10:02:21.705Z,3.75
2023-03-25T10:04:57.397Z,6.28
2023-03-25T10:07:39.017Z,3.25
2023-03-25T10:10:08.416Z,2.63
2023-03-25T10:12:46.289Z,4.78
2023-03-25T10:15:12.886Z,3.78
2023-03-25T10:17:56.632Z,5.10
2023-03-25T10:20:47.572Z,4.00
2023-03-25T10:23:16.886Z,2.92
2023-03-25T10:25:48.799Z,4.15
2023-03-25T10:28:20.664Z,3.35
2023-03-25T10:30:51.801Z,3.80
2023-03-25T10:33:31.519Z,4.35
2023-03-25T10:36:00.470Z,4.32
2023-03-25T10:38:31.005Z,2.92
2023-03-25T10:41:11.604Z,6.40
2023-03-25T10:43:41.805Z,4.20
2023-03-25T10:46:27.757Z,3.63
2023-03-25T10:48:54.560Z,5.68
2023-03-25T10:51:31.209Z,4.63
2023-03-25T10:53:58.469Z,5.15
2023-03-25T10:56:29.429Z,5.10
2023-03-25T10:58:58.064Z,5.38
2023-03-25T11:01:41.258Z,7.20
2023-03-25T11:04:12.613Z,6.05
2023-03-25T11:06:42.109Z,6.15
2023-03-25T11:09:15.346Z,6.05
2023-03-25T11:11:43.242Z,7.53
2023-03-25T11:14:13.376Z,7.72
2023-03-25T11:16:48.113Z,7.25
2023-03-25T11:19:24.609Z,6.35
2023-03-25T11:21:57.232Z,7.28
2023-03-25T11:24:31.588Z,6.25
2023-03-25T11:26:58.711Z,10.65
2023-03-25T11:29:27.348Z,12.63
2023-03-25T11:32:12.925Z,6.28
2023-03-25T11:34:42.565Z,6.38
2023-03-25T11:37:18.608Z,4.72
2023-03-25T11:39:55.911Z,4.85
2023-03-25T11:42:39.227Z,3.20
2023-03-25T11:45:06.819Z,2.78
2023-03-25T11:47:36.582Z,4.03
2023-03-25T11:50:04.344Z,3.90
2023-03-25T11:52:44.633Z,3.22
2023-03-25T11:55:25.613Z,4.60
2023-03-25T11:57:54.755Z,4.35
2023-03-25T12:00:30.788Z,3.70
2023-03-25T12:03:13.125Z,1.88
2023-03-25T12:05:41.778Z,2.85
2023-03-25T12:08:16.341Z,2.33
2023-03-25T12:10:46.829Z,3.85
2023-03-25T12:13:17.042Z,3.22
2023-03-25T12:16:28.830Z,3.55
2023-03-25T12:19:01.139Z,2.75
2023-03-25T12:21:40.984Z,2.53
2023-03-25T12:24:26.248Z,3.22
2023-03-25T12:27:17.341Z,2.75
2023-03-25T12:29:53.483Z,2.88
2023-03-25T12:32:48.029Z,3.88
2023-03-25T12:35:29.385Z,3.67
2023-03-25T12:38:21.946Z,4.00
2023-03-25T12:40:59.933Z,3.90
2023-03-25T12:43:39.236Z,2.85
2023-03-25T12:46:25.285Z,4.38
2023-03-25T12:49:33.673Z,5.25
2023-03-25T12:52:22.252Z,4.57
2023-03-25T12:55:13.996Z,3.30
2023-03-25T12:58:02.133Z,5.22
2023-03-25T13:01:09.490Z,4.53
2023-03-25T13:03:51.721Z,5.80
2023-03-25T13:06:34.785Z,2.88
2023-03-25T13:09:11.013Z,5.50
2023-03-25T13:11:43.072Z,2.97
2023-03-25T13:14:19.331Z,5.32
2023-03-25T13:19:19.416Z,4.15
2023-03-25T13:21:52.666Z,3.65
2023-03-25T13:24:23.405Z,4.18
2023-03-25T13:26:53.957Z,5.75
2023-03-25T13:29:38.749Z,5.00
2023-03-25T13:32:22.461Z,5.03
2023-03-25T13:35:02.240Z,5.18
2023-03-25T13:37:37.003Z,6.15
2023-03-25T13:40:11.765Z,4.32
2023-03-25T13:42:44.505Z,4.97
2023-03-25T13:45:20.266Z,4.82
2023-03-25T13:48:14.126Z,6.55
2023-03-25T13:50:41.013Z,6.03
2023-03-25T13:53:16.884Z,5.93
2023-03-25T13:56:28.012Z,3.22
2023-03-25T13:59:03.508Z,3.70
2023-03-25T14:02:03.487Z,3.70
2023-03-25T14:04:51.223Z,3.60
2023-03-25T14:07:42.960Z,2.35
2023-03-25T14:10:30.063Z,2.55
2023-03-25T14:13:02.221Z,2.05
2023-03-25T14:15:36.848Z,1.85
2023-03-25T14:18:05.354Z,1.13
2023-03-25T14:20:41.358Z,2.95
2023-03-25T14:23:14.335Z,2.80
2023-03-25T14:25:45.044Z,2.47
2023-03-25T14:28:51.310Z,2.00
2023-03-25T14:31:23.718Z,2.08
2023-03-25T14:34:02.729Z,1.98
2023-03-25T14:36:41.895Z,1.55
2023-03-25T14:39:30.518Z,5.15
2023-03-25T14:42:11.312Z,2.67
2023-03-25T14:44:41.681Z,4.60
2023-03-25T14:47:20.764Z,3.30
2023-03-25T14:50:00.412Z,3.30
2023-03-25T14:52:43.425Z,2.13
2023-03-25T14:55:28.499Z,3.55
2023-03-25T14:58:21.000Z,4.45
2023-03-25T15:00:55.820Z,2.75
2023-03-25T15:03:30.560Z,3.85
2023-03-25T15:06:00.285Z,3.53
2023-03-25T15:08:39.954Z,3.88
2023-03-25T15:11:12.074Z,3.88
2023-03-25T15:13:52.798Z,2.80
2023-03-25T15:16:28.545Z,3.35
2023-03-25T15:19:01.283Z,3.13
2023-03-25T15:21:33.882Z,3.55
2023-03-25T15:24:13.339Z,3.08
2023-03-25T15:26:42.764Z,4.97
2023-03-25T15:29:12.121Z,5.38
2023-03-25T15:32:23.341Z,3.10
2023-03-25T15:35:14.645Z,4.13
2023-03-25T15:37:59.913Z,4.22
2023-03-25T15:40:54.389Z,5.38
2023-03-25T15:43:53.552Z,6.75
2023-03-25T15:46:27.247Z,4.55
2023-03-25T15:49:12.108Z,3.47
2023-03-25T15:51:47.932Z,4.90
2023-03-25T15:54:22.076Z,7.72
2023-03-25T15:56:50.470Z,2.85
2023-03-25T15:59:43.070Z,4.10
2023-03-25T16:02:20.083Z,5.57
2023-03-25T16:04:48.911Z,3.75
2023-03-25T16:07:18.508Z,4.50
2023-03-25T16:09:47.948Z,8.98
2023-03-25T16:12:24.160Z,4.85
2023-03-25T16:14:53.779Z,3.88
2023-03-25T16:17:27.358Z,3.38
2023-03-25T16:19:56.501Z,3.70
2023-03-25T16:22:26.184Z,6.25
2023-03-25T16:24:56.812Z,3.60
2023-03-25T16:27:29.330Z,5.60
2023-03-25T16:29:56.789Z,4.13
2023-03-25T16:32:35.845Z,4.88
2023-03-25T16:35:04.613Z,4.93
2023-03-25T16:37:32.875Z,4.50
2023-03-25T16:39:59.651Z,3.55
2023-03-25T16:42:33.772Z,4.05
2023-03-25T16:45:02.019Z,5.65
2023-03-25T16:47:33.422Z,4.97
2023-03-25T16:50:02.161Z,3.33
2023-03-25T16:52:32.724Z,2.55
2023-03-25T16:54:59.455Z,2.65
2023-03-25T16:57:35.445Z,3.70
2023-03-25T17:00:17.400Z,2.88
2023-03-25T17:02:45.875Z,2.85
2023-03-25T17:05:33.295Z,2.78
2023-03-25T17:08:07.256Z,2.65
2023-03-25T17:10:51.605Z,1.55
2023-03-25T17:13:34.816Z,1.95
2023-03-25T17:16:01.857Z,1.30
2023-03-25T17:18:32.073Z,1.40
2023-03-25T17:21:01.476Z,5.13
2023-03-25T17:23:40.114Z,2.08
2023-03-25T17:26:12.515Z,3.03
2023-03-25T17:28:41.352Z,1.83
2023-03-25T17:31:28.156Z,2.53
2023-03-25T17:34:05.338Z,2.38
2023-03-25T17:36:37.870Z,1.83
2023-03-25T17:39:13.114Z,1.73
2023-03-25T17:41:40.316Z,2.83
2023-03-25T17:44:07.633Z,2.08
2023-03-25T17:46:35.335Z,1.35
2023-03-25T17:49:02.080Z,1.73
2023-03-25T17:51:30.842Z,1.63
2023-03-25T17:53:57.597Z,2.10
2023-03-25T17:56:27.438Z,2.05
2023-03-25T17:59:13.036Z,2.33
2023-03-25T18:01:39.754Z,3.03
2023-03-25T18:04:06.900Z,2.63
2023-03-25T18:06:33.635Z,2.67
2023-03-25T18:09:00.716Z,3.03
2023-03-25T18:11:27.354Z,2.92
2023-03-25T18:13:54.450Z,1.80
2023-03-25T18:16:22.208Z,2.10
2023-03-25T18:18:49.090Z,4.05
2023-03-25T18:21:17.606Z,4.22
2023-03-25T18:23:47.726Z,3.75
2023-03-25T18:26:17.441Z,4.55
2023-03-25T18:28:48.735Z,3.65
2023-03-25T18:31:17.608Z,2.70
2023-03-25T18:33:48.647Z,4.88
2023-03-25T18:36:16.338Z,3.10
2023-03-25T18:38:46.092Z,2.60
2023-03-25T18:41:17.439Z,2.78
2023-03-25T18:43:44.737Z,4.32
2023-03-25T18:46:13.991Z,3.03
2023-03-25T18:48:41.089Z,3.75
2023-03-25T18:51:11.934Z,4.35
2023-03-25T18:53:38.758Z,4.20
2023-03-25T18:56:07.194Z,4.00
2023-03-25T18:58:35.842Z,4.32
2023-03-25T19:01:04.607Z,2.97
2023-03-25T19:03:31.748Z,2.50
2023-03-25T19:06:00.112Z,4.18
2023-03-25T19:08:27.967Z,2.03
2023-03-25T19:11:01.767Z,1.58
2023-03-25T19:13:35.023Z,4.97
2023-03-25T19:16:03.119Z,2.35
2023-03-25T19:18:32.913Z,2.92
2023-03-25T19:21:00.410Z,4.07
2023-03-25T19:23:27.341Z,3.28
2023-03-25T19:25:55.127Z,3.15
2023-03-25T19:28:22.767Z,2.95
2023-03-25T19:33:19.357Z,4.43
2023-03-25T19:35:50.349Z,4.80
2023-03-25T19:38:22.680Z,2.95
2023-03-25T19:40:51.813Z,3.97
2023-03-25T19:43:18.638Z,3.92
2023-03-25T19:45:45.263Z,4.35
2023-03-25T19:48:12.038Z,5.38
2023-03-25T19:50:40.776Z,6.40
2023-03-25T19:53:07.782Z,7.85
2023-03-25T19:55:34.805Z,6.72
2023-03-25T19:58:02.271Z,5.93
2023-03-25T20:00:29.235Z,6.45
2023-03-25T20:02:58.759Z,4.75
2023-03-25T20:05:25.512Z,5.35
2023-03-25T20:07:52.159Z,5.85
2023-03-25T20:10:21.456Z,4.90
2023-03-25T20:12:49.638Z,6.35
2023-03-25T20:15:17.508Z,6.78
2023-03-25T20:17:44.460Z,8.02
2023-03-25T20:20:13.490Z,8.13
2023-03-25T20:22:40.837Z,7.53
2023-03-25T20:25:09.457Z,8.43
2023-03-25T20:27:36.446Z,8.35
2023-03-25T20:30:05.763Z,7.38
2023-03-25T20:32:40.624Z,11.23
2023-03-25T20:35:10.231Z,8.80
2023-03-25T20:37:40.458Z,8.85
2023-03-25T20:40:11.392Z,12.23
2023-03-25T20:42:43.113Z,10.93
2023-03-25T20:45:12.334Z,10.57
2023-03-25T20:47:39.076Z,7.32
2023-03-25T20:50:07.094Z,9.18
2023-03-25T20:52:36.226Z,12.48
2023-03-25T20:55:03.123Z,7.47
2023-03-25T20:57:29.813Z,9.43
2023-03-25T20:59:58.103Z,9.05
2023-03-25T21:02:25.275Z,8.10
2023-03-25T21:04:55.082Z,8.30
2023-03-25T21:07:22.488Z,6.82
2023-03-25T21:09:49.588Z,8.93
2023-03-25T21:12:16.475Z,10.70
2023-03-25T21:14:43.454Z,7.70
2023-03-25T21:17:10.492Z,8.90
2023-03-25T21:19:37.147Z,8.20
2023-03-25T21:22:04.136Z,8.25
2023-03-25T21:24:33.731Z,10.15
2023-03-25T21:27:00.594Z,12.65
2023-03-25T21:29:27.421Z,7.90
2023-03-25T21:31:54.173Z,10.57
2023-03-25T21:34:22.162Z,8.18
2023-03-25T21:36:49.148Z,10.60
2023-03-25T21:39:15.738Z,11.13
2023-03-25T21:41:42.614Z,9.50
2023-03-25T21:44:09.292Z,7.40
2023-03-25T21:46:36.797Z,7.40
2023-03-25T21:49:03.971Z,7.03
2023-03-25T21:51:31.019Z,7.72
2023-03-25T21:53:59.700Z,5.80
2023-03-25T21:56:30.363Z,8.68
2023-03-25T21:58:57.793Z,7.72
2023-03-25T22:01:29.544Z,8.23
2023-03-25T22:03:58.237Z,8.10
2023-03-25T22:06:27.494Z,9.93
2023-03-25T22:08:57.018Z,7.55
2023-03-25T22:11:27.076Z,6.97
2023-03-25T22:13:53.852Z,7.80
2023-03-25T22:16:21.318Z,8.30
2023-03-25T22:18:48.656Z,7.28
2023-03-25T22:21:22.387Z,8.30
2023-03-25T22:23:54.146Z,9.40
2023-03-25T22:26:23.007Z,11.25
2023-03-25T22:28:56.700Z,8.45
2023-03-25T22:31:31.720Z,7.88
2023-03-25T22:34:03.480Z,9.23
2023-03-25T22:36:33.163Z,11.57
2023-03-25T22:39:00.863Z,9.38
2023-03-25T22:41:27.689Z,14.75
2023-03-25T22:43:55.855Z,9.02
2023-03-25T22:46:22.978Z,7.03
2023-03-25T22:48:50.012Z,11.38
2023-03-25T22:51:19.018Z,7.07
2023-03-25T22:53:46.207Z,9.35
2023-03-25T22:56:13.952Z,7.85
2023-03-25T22:58:40.851Z,10.88
2023-03-25T23:01:20.298Z,9.80
2023-03-25T23:03:47.398Z,10.90
2023-03-25T23:06:14.697Z,13.75
2023-03-25T23:08:42.981Z,7.32
2023-03-25T23:11:21.382Z,9.30
2023-03-25T23:13:52.275Z,8.82
2023-03-25T23:16:22.349Z,8.85
2023-03-25T23:18:49.465Z,9.23
2023-03-25T23:21:22.699Z,8.73
2023-03-25T23:23:52.745Z,8.45
2023-03-25T23:26:36.563Z,8.90
2023-03-25T23:29:05.725Z,11.48
2023-03-25T23:31:34.308Z,10.45
2023-03-25T23:34:04.692Z,8.93
2023-03-25T23:36:34.246Z,9.07
2023-03-25T23:39:02.185Z,7.47
2023-03-25T23:41:29.577Z,10.60
2023-03-25T23:43:56.534Z,7.30
2023-03-25T23:46:24.804Z,9.10
2023-03-25T23:48:54.852Z,9.15
2023-03-25T23:51:24.346Z,9.05
2023-03-25T23:53:51.667Z,7.95
2023-03-25T23:56:20.683Z,8.10
2023-03-25T23:58:47.301Z,9.15
